createdAt,value
2023-02-02T00:00:07.997Z,0.00
2023-02-02T00:01:07.952Z,0.00
2023-02-02T00:02:07.960Z,0.00
2023-02-02T00:03:07.955Z,0.00
2023-02-02T00:04:08.043Z,0.00
2023-02-02T00:05:08.014Z,0.00
2023-02-02T00:06:07.914Z,0.00
2023-02-02T00:07:07.886Z,0.00
2023-02-02T00:08:07.946Z,0.00
2023-02-02T00:09:07.865Z,0.00
2023-02-02T00:10:07.885Z,0.00
2023-02-02T00:11:08.207Z,0.00
2023-02-02T00:12:07.856Z,0.00
2023-02-02T00:13:07.853Z,0.00
2023-02-02T00:14:07.834Z,0.00
2023-02-02T00:15:07.869Z,0.00
2023-02-02T00:16:07.971Z,0.00
2023-02-02T00:17:08.696Z,0.00
2023-02-02T00:18:07.830Z,0.00
2023-02-02T00:19:07.771Z,0.00
2023-02-02T00:20:07.827Z,0.00
2023-02-02T00:21:07.781Z,0.00
2023-02-02T00:22:07.787Z,0.00
2023-02-02T00:23:07.743Z,0.00
2023-02-02T00:24:08.527Z,0.00
2023-02-02T00:25:07.813Z,0.00
2023-02-02T00:26:07.713Z,0.00
2023-02-02T00:27:07.693Z,0.00
2023-02-02T00:28:07.692Z,0.00
2023-02-02T00:29:07.670Z,0.00
2023-02-02T00:30:07.692Z,0.00
2023-02-02T00:31:07.741Z,0.00
2023-02-02T00:32:07.665Z,0.00
2023-02-02T00:33:07.623Z,0.00
2023-02-02T00:34:07.629Z,0.00
2023-02-02T00:35:08.151Z,0.00
2023-02-02T00:36:07.637Z,0.00
2023-02-02T00:37:07.597Z,0.00
2023-02-02T00:38:07.623Z,0.00
2023-02-02T00:39:07.597Z,0.00
2023-02-02T00:40:07.555Z,0.00
2023-02-02T00:41:07.543Z,0.00
2023-02-02T00:42:07.836Z,0.00
2023-02-02T00:43:07.511Z,0.00
2023-02-02T00:44:07.532Z,0.00
2023-02-02T00:45:07.488Z,0.00
2023-02-02T00:46:07.525Z,0.00
2023-02-02T00:47:07.496Z,0.00
2023-02-02T00:48:07.500Z,0.00
2023-02-02T00:49:07.502Z,0.00
2023-02-02T00:50:07.457Z,0.00
2023-02-02T00:51:07.450Z,0.00
2023-02-02T00:52:07.443Z,0.00
2023-02-02T00:53:07.404Z,0.00
2023-02-02T00:54:07.407Z,0.00
2023-02-02T00:55:07.400Z,0.00
2023-02-02T00:56:07.434Z,0.00
2023-02-02T00:57:07.475Z,0.00
2023-02-02T00:58:07.384Z,0.00
2023-02-02T00:59:07.366Z,0.00
2023-02-02T01:00:07.343Z,0.00
2023-02-02T01:01:07.379Z,0.00
2023-02-02T01:02:07.372Z,0.00
2023-02-02T01:03:07.354Z,0.00
2023-02-02T01:04:07.313Z,0.00
2023-02-02T01:05:07.301Z,0.00
2023-02-02T01:06:07.275Z,0.00
2023-02-02T01:07:07.288Z,0.00
2023-02-02T01:08:07.280Z,0.00
2023-02-02T01:09:07.487Z,0.00
2023-02-02T01:10:07.295Z,0.00
2023-02-02T01:11:07.230Z,0.00
2023-02-02T01:12:07.218Z,0.00
2023-02-02T01:13:07.230Z,0.00
2023-02-02T01:14:07.229Z,0.00
2023-02-02T01:15:07.197Z,0.00
2023-02-02T01:16:07.224Z,0.00
2023-02-02T01:17:07.160Z,0.00
2023-02-02T01:18:07.160Z,0.00
2023-02-02T01:19:07.153Z,0.00
2023-02-02T01:20:07.147Z,0.00
2023-02-02T01:21:07.125Z,0.00
2023-02-02T01:22:07.123Z,0.00
2023-02-02T01:23:07.101Z,0.00
2023-02-02T01:24:07.119Z,0.00
2023-02-02T01:25:07.098Z,0.00
2023-02-02T01:26:07.080Z,0.00
2023-02-02T01:27:07.085Z,0.00
2023-02-02T01:28:07.050Z,0.00
2023-02-02T01:29:07.103Z,0.00
2023-02-02T01:30:07.051Z,0.00
2023-02-02T01:31:07.083Z,0.00
2023-02-02T01:32:07.024Z,0.00
2023-02-02T01:33:06.999Z,0.00
2023-02-02T01:34:06.995Z,0.00
2023-02-02T01:35:07.020Z,0.00
2023-02-02T01:36:06.993Z,0.00
2023-02-02T01:37:06.953Z,0.00
2023-02-02T01:38:06.930Z,0.00
2023-02-02T01:39:06.995Z,0.00
2023-02-02T01:40:06.938Z,0.00
2023-02-02T01:41:06.948Z,0.00
2023-02-02T01:42:06.909Z,0.00
2023-02-02T01:43:06.900Z,0.00
2023-02-02T01:44:06.884Z,0.00
2023-02-02T01:45:06.875Z,0.00
2023-02-02T01:46:06.976Z,0.00
2023-02-02T01:47:06.869Z,0.00
2023-02-02T01:48:06.846Z,0.00
2023-02-02T01:49:06.832Z,0.00
2023-02-02T01:50:06.833Z,0.00
2023-02-02T01:51:07.252Z,0.00
2023-02-02T01:52:06.817Z,0.00
2023-02-02T01:53:06.835Z,0.00
2023-02-02T01:54:06.785Z,0.00
2023-02-02T01:55:07.379Z,0.00
2023-02-02T01:56:06.783Z,0.00
2023-02-02T01:57:06.758Z,0.00
2023-02-02T01:58:06.947Z,0.00
2023-02-02T01:59:06.728Z,0.00
2023-02-02T02:00:06.740Z,0.00
2023-02-02T02:01:06.736Z,0.00
2023-02-02T02:02:06.801Z,0.00
2023-02-02T02:03:06.686Z,0.00
2023-02-02T02:04:06.705Z,0.00
2023-02-02T02:05:06.687Z,0.00
2023-02-02T02:06:06.702Z,0.00
2023-02-02T02:07:06.769Z,0.00
2023-02-02T02:08:06.815Z,0.00
2023-02-02T02:09:06.647Z,0.00
2023-02-02T02:10:06.606Z,0.00
2023-02-02T02:11:06.603Z,0.00
2023-02-02T02:12:06.585Z,0.00
2023-02-02T02:13:06.590Z,0.00
2023-02-02T02:14:06.577Z,0.00
2023-02-02T02:15:06.550Z,0.00
2023-02-02T02:16:06.577Z,0.00
2023-02-02T02:17:06.586Z,0.00
2023-02-02T02:18:06.529Z,0.00
2023-02-02T02:19:06.524Z,0.00
2023-02-02T02:20:06.525Z,0.00
2023-02-02T02:21:07.920Z,0.00
2023-02-02T02:22:06.478Z,0.00
2023-02-02T02:23:06.484Z,0.00
2023-02-02T02:24:06.495Z,0.00
2023-02-02T02:25:06.463Z,0.00
2023-02-02T02:26:06.500Z,0.00
2023-02-02T02:27:06.426Z,0.00
2023-02-02T02:28:06.462Z,0.00
2023-02-02T02:29:06.421Z,0.00
2023-02-02T02:30:06.412Z,0.00
2023-02-02T02:31:06.466Z,0.00
2023-02-02T02:32:06.390Z,0.00
2023-02-02T02:33:06.393Z,0.00
2023-02-02T02:34:06.387Z,0.00
2023-02-02T02:35:06.347Z,0.00
2023-02-02T02:36:06.357Z,0.00
2023-02-02T02:37:06.320Z,0.00
2023-02-02T02:38:06.313Z,0.00
2023-02-02T02:39:06.326Z,0.00
2023-02-02T02:40:06.313Z,0.00
2023-02-02T02:41:06.276Z,0.00
2023-02-02T02:42:06.302Z,0.00
2023-02-02T02:43:06.284Z,0.00
2023-02-02T02:44:06.277Z,0.00
2023-02-02T02:45:06.247Z,0.00
2023-02-02T02:46:06.303Z,0.00
2023-02-02T02:47:06.221Z,0.00
2023-02-02T02:48:06.257Z,0.00
2023-02-02T02:49:06.202Z,0.00
2023-02-02T02:50:06.242Z,0.00
2023-02-02T02:51:06.176Z,0.00
2023-02-02T02:52:06.295Z,0.00
2023-02-02T02:53:06.164Z,0.00
2023-02-02T02:54:06.172Z,0.00
2023-02-02T02:55:06.195Z,0.00
2023-02-02T02:56:06.155Z,0.00
2023-02-02T02:57:06.135Z,0.00
2023-02-02T02:58:06.147Z,0.00
2023-02-02T02:59:06.078Z,0.00
2023-02-02T03:00:06.102Z,0.00
2023-02-02T03:01:06.086Z,0.00
2023-02-02T03:02:06.108Z,0.00
2023-02-02T03:03:06.073Z,0.00
2023-02-02T03:04:06.108Z,0.00
2023-02-02T03:05:06.024Z,0.00
2023-02-02T03:06:06.039Z,0.00
2023-02-02T03:07:05.990Z,0.00
2023-02-02T03:08:06.061Z,0.00
2023-02-02T03:09:06.004Z,0.00
2023-02-02T03:10:05.990Z,0.00
2023-02-02T03:11:05.967Z,0.00
2023-02-02T03:12:05.967Z,0.00
2023-02-02T03:13:05.976Z,0.00
2023-02-02T03:14:05.949Z,0.00
2023-02-02T03:15:05.913Z,0.00
2023-02-02T03:16:05.959Z,0.00
2023-02-02T03:17:05.918Z,0.00
2023-02-02T03:18:05.900Z,0.00
2023-02-02T03:19:05.916Z,0.00
2023-02-02T03:20:05.922Z,0.00
2023-02-02T03:21:05.890Z,0.00
2023-02-02T03:22:05.840Z,0.00
2023-02-02T03:23:05.846Z,0.00
2023-02-02T03:24:05.846Z,0.00
2023-02-02T03:25:05.817Z,0.00
2023-02-02T03:26:05.826Z,0.00
2023-02-02T03:27:05.821Z,0.00
2023-02-02T03:28:05.811Z,0.00
2023-02-02T03:29:05.791Z,0.00
2023-02-02T03:30:05.768Z,0.00
2023-02-02T03:31:05.902Z,0.00
2023-02-02T03:32:05.812Z,0.00
2023-02-02T03:33:05.795Z,0.00
2023-02-02T03:34:05.722Z,0.00
2023-02-02T03:35:05.741Z,0.00
2023-02-02T03:36:05.704Z,0.00
2023-02-02T03:37:05.689Z,0.00
2023-02-02T03:38:05.676Z,0.00
2023-02-02T03:39:05.668Z,0.00
2023-02-02T03:40:05.665Z,0.00
2023-02-02T03:41:05.660Z,0.00
2023-02-02T03:42:05.651Z,0.00
2023-02-02T03:43:05.621Z,0.00
2023-02-02T03:44:05.634Z,0.00
2023-02-02T03:45:05.610Z,0.00
2023-02-02T03:46:05.684Z,0.00
2023-02-02T03:47:05.573Z,0.00
2023-02-02T03:48:05.580Z,0.00
2023-02-02T03:49:05.594Z,0.00
2023-02-02T03:50:05.627Z,0.00
2023-02-02T03:51:05.576Z,0.00
2023-02-02T03:52:05.530Z,0.00
2023-02-02T03:53:05.544Z,0.00
2023-02-02T03:54:05.542Z,0.00
2023-02-02T03:55:05.538Z,0.00
2023-02-02T03:56:05.496Z,0.00
2023-02-02T03:57:05.507Z,0.00
2023-02-02T03:58:05.457Z,0.00
2023-02-02T03:59:05.558Z,0.00
2023-02-02T04:00:05.451Z,0.00
2023-02-02T04:01:05.459Z,0.00
2023-02-02T04:02:05.429Z,0.00
2023-02-02T04:03:05.519Z,0.00
2023-02-02T04:04:05.398Z,0.00
2023-02-02T04:05:05.408Z,0.00
2023-02-02T04:06:05.388Z,0.00
2023-02-02T04:07:05.386Z,0.00
2023-02-02T04:08:05.346Z,0.00
2023-02-02T04:09:05.458Z,0.00
2023-02-02T04:10:05.348Z,0.00
2023-02-02T04:11:05.321Z,0.00
2023-02-02T04:12:05.322Z,0.00
2023-02-02T04:13:05.316Z,0.00
2023-02-02T04:14:05.745Z,0.00
2023-02-02T04:15:05.337Z,0.00
2023-02-02T04:16:05.350Z,0.00
2023-02-02T04:17:05.267Z,0.00
2023-02-02T04:18:05.243Z,0.00
2023-02-02T04:19:05.461Z,0.00
2023-02-02T04:20:05.274Z,0.00
2023-02-02T04:21:05.239Z,0.00
2023-02-02T04:22:05.209Z,0.00
2023-02-02T04:23:05.199Z,0.00
2023-02-02T04:24:05.201Z,0.00
2023-02-02T04:25:05.213Z,0.00
2023-02-02T04:26:05.159Z,0.00
2023-02-02T04:27:05.173Z,0.00
2023-02-02T04:28:05.153Z,0.00
2023-02-02T04:29:05.158Z,0.00
2023-02-02T04:30:05.117Z,0.00
2023-02-02T04:31:05.148Z,0.00
2023-02-02T04:32:05.120Z,0.00
2023-02-02T04:33:05.106Z,0.00
2023-02-02T04:34:05.089Z,0.00
2023-02-02T04:35:05.072Z,0.00
2023-02-02T04:36:05.054Z,0.00
2023-02-02T04:37:05.048Z,0.00
2023-02-02T04:38:05.225Z,0.00
2023-02-02T04:39:05.039Z,0.00
2023-02-02T04:40:05.049Z,0.00
2023-02-02T04:41:05.020Z,0.00
2023-02-02T04:42:05.013Z,0.00
2023-02-02T04:43:04.991Z,0.00
2023-02-02T04:44:04.996Z,0.00
2023-02-02T04:45:04.991Z,0.00
2023-02-02T04:46:04.961Z,0.00
2023-02-02T04:47:04.945Z,0.00
2023-02-02T04:48:04.954Z,0.00
2023-02-02T04:49:04.953Z,0.00
2023-02-02T04:50:04.913Z,0.00
2023-02-02T04:51:04.900Z,0.00
2023-02-02T04:52:04.904Z,0.00
2023-02-02T04:53:04.938Z,0.00
2023-02-02T04:54:04.883Z,0.00
2023-02-02T04:55:04.886Z,0.00
2023-02-02T04:56:04.865Z,0.00
2023-02-02T04:57:04.877Z,0.00
2023-02-02T04:58:04.842Z,0.00
2023-02-02T04:59:04.851Z,0.00
2023-02-02T05:00:04.802Z,0.00
2023-02-02T05:01:04.856Z,0.00
2023-02-02T05:02:04.803Z,0.00
2023-02-02T05:03:04.800Z,0.00
2023-02-02T05:04:04.801Z,0.00
2023-02-02T05:05:04.757Z,0.00
2023-02-02T05:06:04.741Z,0.00
2023-02-02T05:07:04.734Z,0.00
2023-02-02T05:08:04.730Z,0.00
2023-02-02T05:09:04.737Z,0.00
2023-02-02T05:10:04.728Z,0.00
2023-02-02T05:11:04.683Z,0.00
2023-02-02T05:12:05.464Z,0.00
2023-02-02T05:13:04.672Z,0.00
2023-02-02T05:14:04.667Z,0.00
2023-02-02T05:15:04.666Z,0.00
2023-02-02T05:16:04.638Z,0.00
2023-02-02T05:17:04.639Z,0.00
2023-02-02T05:18:04.596Z,0.00
2023-02-02T05:19:04.604Z,0.00
2023-02-02T05:20:04.607Z,0.00
2023-02-02T05:21:04.596Z,0.00
2023-02-02T05:22:04.673Z,0.00
2023-02-02T05:23:04.555Z,0.00
2023-02-02T05:24:04.694Z,0.00
2023-02-02T05:25:04.554Z,0.00
2023-02-02T05:26:04.531Z,0.00
2023-02-02T05:27:04.518Z,0.00
2023-02-02T05:28:04.593Z,0.00
2023-02-02T05:29:04.511Z,0.00
2023-02-02T05:30:04.575Z,0.00
2023-02-02T05:31:04.536Z,0.00
2023-02-02T05:32:04.560Z,0.00
2023-02-02T05:33:04.471Z,0.00
2023-02-02T05:34:04.479Z,0.00
2023-02-02T05:35:04.454Z,0.00
2023-02-02T05:36:04.437Z,0.00
2023-02-02T05:37:04.423Z,0.00
2023-02-02T05:38:04.457Z,0.00
2023-02-02T05:39:04.399Z,0.00
2023-02-02T05:40:04.418Z,0.00
2023-02-02T05:41:04.405Z,0.00
2023-02-02T05:42:04.352Z,0.00
2023-02-02T05:43:04.376Z,0.00
2023-02-02T05:44:04.372Z,0.00
2023-02-02T05:45:04.484Z,0.00
2023-02-02T05:46:04.383Z,0.00
2023-02-02T05:47:04.348Z,0.00
2023-02-02T05:48:04.303Z,0.00
2023-02-02T05:49:04.383Z,0.00
2023-02-02T05:50:04.312Z,0.00
2023-02-02T05:51:04.490Z,0.00
2023-02-02T05:52:04.245Z,0.00
2023-02-02T05:53:04.259Z,0.00
2023-02-02T05:54:04.229Z,0.00
2023-02-02T05:55:04.236Z,0.00
2023-02-02T05:56:04.255Z,0.00
2023-02-02T05:57:04.207Z,0.00
2023-02-02T05:58:04.200Z,0.00
2023-02-02T05:59:04.225Z,0.00
2023-02-02T06:00:04.159Z,0.00
2023-02-02T06:01:04.251Z,0.00
2023-02-02T06:02:04.145Z,0.00
2023-02-02T06:03:04.297Z,0.00
2023-02-02T06:04:04.169Z,0.00
2023-02-02T06:05:04.111Z,0.00
2023-02-02T06:06:06.660Z,0.00
2023-02-02T06:07:04.269Z,0.00
2023-02-02T06:08:04.138Z,0.00
2023-02-02T06:09:04.075Z,0.00
2023-02-02T06:10:04.055Z,0.00
2023-02-02T06:11:04.070Z,0.00
2023-02-02T06:12:04.090Z,0.00
2023-02-02T06:13:04.028Z,0.00
2023-02-02T06:14:04.018Z,0.00
2023-02-02T06:15:04.010Z,0.00
2023-02-02T06:16:04.124Z,0.00
2023-02-02T06:17:04.077Z,0.00
2023-02-02T06:18:03.986Z,0.00
2023-02-02T06:19:03.945Z,0.00
2023-02-02T06:20:04.058Z,0.00
2023-02-02T06:21:04.051Z,0.00
2023-02-02T06:22:03.956Z,0.00
2023-02-02T06:23:04.033Z,0.00
2023-02-02T06:24:03.909Z,0.00
2023-02-02T06:25:03.903Z,0.00
2023-02-02T06:26:03.885Z,0.00
2023-02-02T06:27:03.885Z,0.00
2023-02-02T06:28:04.067Z,0.00
2023-02-02T06:29:03.848Z,0.00
2023-02-02T06:30:03.974Z,0.00
2023-02-02T06:31:03.948Z,0.00
2023-02-02T06:32:03.940Z,0.00
2023-02-02T06:33:03.826Z,0.00
2023-02-02T06:34:05.818Z,0.00
2023-02-02T06:35:03.971Z,0.00
2023-02-02T06:36:03.799Z,0.00
2023-02-02T06:37:03.787Z,0.00
2023-02-02T06:38:03.772Z,0.00
2023-02-02T06:39:03.748Z,0.00
2023-02-02T06:40:03.771Z,0.00
2023-02-02T06:41:03.799Z,0.00
2023-02-02T06:42:19.223Z,0.00
2023-02-02T06:43:03.741Z,0.00
2023-02-02T06:44:03.879Z,0.00
2023-02-02T06:45:03.742Z,0.00
2023-02-02T06:46:03.730Z,0.00
2023-02-02T06:47:03.729Z,0.00
2023-02-02T06:48:03.884Z,1.00
2023-02-02T06:49:03.663Z,0.00
2023-02-02T06:50:03.620Z,0.00
2023-02-02T06:51:03.624Z,0.00
2023-02-02T06:52:03.644Z,0.00
2023-02-02T06:53:03.604Z,0.00
2023-02-02T06:54:03.672Z,0.00
2023-02-02T06:55:03.543Z,1.00
2023-02-02T06:56:03.504Z,1.00
2023-02-02T06:57:03.550Z,1.00
2023-02-02T06:58:03.600Z,0.00
2023-02-02T06:59:03.514Z,2.00
2023-02-02T07:00:03.469Z,1.00
2023-02-02T07:01:03.482Z,5.00
2023-02-02T07:02:03.462Z,3.00
2023-02-02T07:03:03.545Z,2.00
2023-02-02T07:04:03.482Z,5.00
2023-02-02T07:05:03.443Z,3.00
2023-02-02T07:06:03.442Z,4.00
2023-02-02T07:07:03.415Z,3.00
2023-02-02T07:08:03.393Z,7.00
2023-02-02T07:09:03.673Z,9.00
2023-02-02T07:10:03.398Z,8.00
2023-02-02T07:11:13.825Z,19.00
2023-02-02T07:12:03.370Z,20.00
2023-02-02T07:13:03.325Z,21.00
2023-02-02T07:14:03.315Z,17.00
2023-02-02T07:15:03.492Z,19.00
2023-02-02T07:16:03.332Z,20.00
2023-02-02T07:17:03.311Z,22.00
2023-02-02T07:18:03.286Z,21.00
2023-02-02T07:19:03.270Z,23.00
2023-02-02T07:20:03.255Z,22.00
2023-02-02T07:21:03.250Z,27.00
2023-02-02T07:22:03.252Z,22.00
2023-02-02T07:23:03.246Z,29.00
2023-02-02T07:24:03.214Z,22.00
2023-02-02T07:25:03.211Z,36.00
2023-02-02T07:26:03.243Z,37.00
2023-02-02T07:27:03.214Z,48.00
2023-02-02T07:28:03.193Z,45.00
2023-02-02T07:29:03.157Z,41.00
2023-02-02T07:30:03.173Z,40.00
2023-02-02T07:31:03.293Z,42.00
2023-02-02T07:32:03.155Z,43.00
2023-02-02T07:33:03.162Z,49.00
2023-02-02T07:34:03.150Z,40.00
2023-02-02T07:35:03.096Z,76.00
2023-02-02T07:36:03.102Z,57.00
2023-02-02T07:37:03.099Z,66.00
2023-02-02T07:38:03.078Z,80.00
2023-02-02T07:39:03.053Z,74.00
2023-02-02T07:40:03.095Z,89.00
2023-02-02T07:41:03.157Z,55.00
2023-02-02T07:42:03.016Z,87.00
2023-02-02T07:43:03.028Z,99.00
2023-02-02T07:44:03.000Z,90.00
2023-02-02T07:45:36.510Z,75.00
2023-02-02T07:46:03.007Z,82.00
2023-02-02T07:47:02.991Z,138.00
2023-02-02T07:48:03.011Z,72.00
2023-02-02T07:49:02.959Z,156.00
2023-02-02T07:50:02.993Z,146.00
2023-02-02T07:51:02.951Z,130.00
2023-02-02T07:52:02.926Z,220.00
2023-02-02T07:53:02.933Z,229.00
2023-02-02T07:54:02.939Z,223.00
2023-02-02T07:55:14.407Z,194.00
2023-02-02T07:56:03.141Z,174.00
2023-02-02T07:57:02.892Z,168.00
2023-02-02T07:58:03.155Z,274.00
2023-02-02T07:59:02.913Z,164.00
2023-02-02T08:00:02.865Z,197.00
2023-02-02T08:01:02.915Z,201.00
2023-02-02T08:02:02.913Z,127.00
2023-02-02T08:03:02.869Z,201.00
2023-02-02T08:04:02.902Z,160.00
2023-02-02T08:05:02.801Z,145.00
2023-02-02T08:06:03.021Z,215.00
2023-02-02T08:07:02.831Z,180.00
2023-02-02T08:08:02.744Z,203.00
2023-02-02T08:09:02.763Z,221.00
2023-02-02T08:10:02.716Z,164.00
2023-02-02T08:11:02.712Z,247.00
2023-02-02T08:12:02.835Z,211.00
2023-02-02T08:13:02.672Z,235.00
2023-02-02T08:14:02.764Z,268.00
2023-02-02T08:15:02.692Z,217.00
2023-02-02T08:16:02.727Z,192.00
2023-02-02T08:17:02.791Z,292.00
2023-02-02T08:18:02.677Z,347.00
2023-02-02T08:19:02.626Z,314.00
2023-02-02T08:20:02.624Z,282.00
2023-02-02T08:21:02.637Z,291.00
2023-02-02T08:22:02.657Z,179.00
2023-02-02T08:23:02.590Z,218.00
2023-02-02T08:24:02.612Z,251.00
2023-02-02T08:25:02.567Z,297.00
2023-02-02T08:26:02.799Z,355.00
2023-02-02T08:27:02.552Z,218.00
2023-02-02T08:28:02.537Z,344.00
2023-02-02T08:29:02.509Z,346.00
2023-02-02T08:30:02.523Z,328.00
2023-02-02T08:31:02.493Z,343.00
2023-02-02T08:32:02.551Z,385.00
2023-02-02T08:33:02.501Z,332.00
2023-02-02T08:34:02.477Z,271.00
2023-02-02T08:35:02.456Z,201.00
2023-02-02T08:36:02.464Z,353.00
2023-02-02T08:37:02.441Z,293.00
2023-02-02T08:38:02.463Z,244.00
2023-02-02T08:39:03.279Z,262.00
2023-02-02T08:40:02.468Z,243.00
2023-02-02T08:41:02.396Z,253.00
2023-02-02T08:42:02.405Z,246.00
2023-02-02T08:43:02.396Z,293.00
2023-02-02T08:44:02.387Z,233.00
2023-02-02T08:46:02.654Z,289.00
2023-02-02T08:46:08.245Z,284.00
2023-02-02T08:47:02.423Z,265.00
2023-02-02T08:48:11.713Z,283.00
2023-02-02T08:49:02.340Z,300.00
2023-02-02T08:50:02.324Z,217.00
2023-02-02T08:51:02.284Z,138.00
2023-02-02T08:52:03.003Z,280.00
2023-02-02T08:53:02.290Z,329.00
2023-02-02T08:54:02.300Z,539.00
2023-02-02T08:55:02.263Z,340.00
2023-02-02T08:56:02.243Z,353.00
2023-02-02T08:57:02.215Z,384.00
2023-02-02T08:58:02.338Z,203.00
2023-02-02T08:59:02.199Z,218.00
2023-02-02T09:00:02.190Z,270.00
2023-02-02T09:01:02.357Z,475.00
2023-02-02T09:02:02.240Z,483.00
2023-02-02T09:03:02.295Z,294.00
2023-02-02T09:04:02.145Z,140.00
2023-02-02T09:05:02.168Z,99.00
2023-02-02T09:06:02.141Z,144.00
2023-02-02T09:07:02.209Z,300.00
2023-02-02T09:08:02.206Z,403.00
2023-02-02T09:09:02.198Z,270.00
2023-02-02T09:10:02.120Z,257.00
2023-02-02T09:11:02.146Z,238.00
2023-02-02T09:12:02.127Z,250.00
2023-02-02T09:13:02.071Z,277.00
2023-02-02T09:14:02.106Z,251.00
2023-02-02T09:15:02.073Z,205.00
2023-02-02T09:16:02.041Z,231.00
2023-02-02T09:17:02.068Z,274.00
2023-02-02T09:18:02.009Z,228.00
2023-02-02T09:19:02.084Z,237.00
2023-02-02T09:20:01.996Z,200.00
2023-02-02T09:21:01.958Z,145.00
2023-02-02T09:22:02.062Z,184.00
2023-02-02T09:23:01.934Z,203.00
2023-02-02T09:24:01.936Z,378.00
2023-02-02T09:25:01.974Z,350.00
2023-02-02T09:26:01.922Z,297.00
2023-02-02T09:27:02.024Z,454.00
2023-02-02T09:28:01.918Z,443.00
2023-02-02T09:29:01.871Z,300.00
2023-02-02T09:30:01.888Z,259.00
2023-02-02T09:31:01.970Z,268.00
2023-02-02T09:32:01.915Z,636.00
2023-02-02T09:33:01.843Z,707.00
2023-02-02T09:34:01.876Z,603.00
2023-02-02T09:35:01.822Z,599.00
2023-02-02T09:36:01.826Z,570.00
2023-02-02T09:37:01.835Z,514.00
2023-02-02T09:38:01.811Z,377.00
2023-02-02T09:39:01.776Z,452.00
2023-02-02T09:40:01.813Z,351.00
2023-02-02T09:41:01.744Z,399.00
2023-02-02T09:42:03.238Z,337.00
2023-02-02T09:43:01.729Z,325.00
2023-02-02T09:44:01.750Z,341.00
2023-02-02T09:45:01.758Z,454.00
2023-02-02T09:46:01.754Z,748.00
2023-02-02T09:47:01.697Z,593.00
2023-02-02T09:48:01.667Z,452.00
2023-02-02T09:49:01.738Z,450.00
2023-02-02T09:50:01.667Z,378.00
2023-02-02T09:51:01.673Z,692.00
2023-02-02T09:52:01.644Z,559.00
2023-02-02T09:53:01.608Z,880.00
2023-02-02T09:54:01.606Z,639.00
2023-02-02T09:55:01.664Z,881.00
2023-02-02T09:56:01.596Z,664.00
2023-02-02T09:57:01.621Z,982.00
2023-02-02T09:58:01.649Z,1281.00
2023-02-02T09:59:13.783Z,726.00
2023-02-02T10:00:01.624Z,877.00
2023-02-02T10:01:01.582Z,790.00
2023-02-02T10:02:01.629Z,787.00
2023-02-02T10:03:01.511Z,766.00
2023-02-02T10:04:01.709Z,728.00
2023-02-02T10:05:01.548Z,812.00
2023-02-02T10:06:01.553Z,679.00
2023-02-02T10:07:01.479Z,678.00
2023-02-02T10:08:01.503Z,540.00
2023-02-02T10:09:01.466Z,527.00
2023-02-02T10:10:03.213Z,493.00
2023-02-02T10:11:01.597Z,546.00
2023-02-02T10:12:01.491Z,557.00
2023-02-02T10:13:01.405Z,494.00
2023-02-02T10:14:01.377Z,526.00
2023-02-02T10:15:01.467Z,455.00
2023-02-02T10:16:01.859Z,538.00
2023-02-02T10:17:01.429Z,485.00
2023-02-02T10:18:01.416Z,400.00
2023-02-02T10:19:01.369Z,347.00
2023-02-02T10:20:01.343Z,388.00
2023-02-02T10:21:01.362Z,376.00
2023-02-02T10:22:01.341Z,630.00
2023-02-02T10:23:01.361Z,502.00
2023-02-02T10:24:02.394Z,494.00
2023-02-02T10:25:01.273Z,461.00
2023-02-02T10:26:01.346Z,535.00
2023-02-02T10:27:01.293Z,445.00
2023-02-02T10:28:01.250Z,479.00
2023-02-02T10:29:01.274Z,502.00
2023-02-02T10:30:01.245Z,446.00
2023-02-02T10:31:01.421Z,341.00
2023-02-02T10:32:01.247Z,397.00
2023-02-02T10:33:01.600Z,639.00
2023-02-02T10:34:01.191Z,738.00
2023-02-02T10:35:13.147Z,657.00
2023-02-02T10:36:01.199Z,527.00
2023-02-02T10:37:01.134Z,519.00
2023-02-02T10:38:01.175Z,458.00
2023-02-02T10:39:01.176Z,556.00
2023-02-02T10:40:01.235Z,487.00
2023-02-02T10:41:01.128Z,712.00
2023-02-02T10:42:01.123Z,1082.00
2023-02-02T10:43:01.108Z,1082.00
2023-02-02T10:44:01.093Z,949.00
2023-02-02T10:45:01.134Z,749.00
2023-02-02T10:46:01.081Z,420.00
2023-02-02T10:47:01.035Z,594.00
2023-02-02T10:48:01.049Z,891.00
2023-02-02T10:49:01.890Z,667.00
2023-02-02T10:50:01.128Z,643.00
2023-02-02T10:51:00.997Z,613.00
2023-02-02T10:52:01.004Z,617.00
2023-02-02T10:53:01.023Z,632.00
2023-02-02T10:54:01.054Z,513.00
2023-02-02T10:55:04.030Z,718.00
2023-02-02T10:56:00.985Z,632.00
2023-02-02T10:57:01.952Z,660.00
2023-02-02T10:58:00.969Z,977.00
2023-02-02T10:59:00.948Z,781.00
2023-02-02T11:00:01.034Z,758.00
2023-02-02T11:01:00.963Z,738.00
2023-02-02T11:02:11.737Z,796.00
2023-02-02T11:03:00.938Z,784.00
2023-02-02T11:04:00.887Z,614.00
2023-02-02T11:05:00.892Z,593.00
2023-02-02T11:06:00.846Z,646.00
2023-02-02T11:07:01.705Z,711.00
2023-02-02T11:08:00.856Z,554.00
2023-02-02T11:09:00.832Z,710.00
2023-02-02T11:10:00.899Z,742.00
2023-02-02T11:11:00.832Z,606.00
2023-02-02T11:12:00.780Z,746.00
2023-02-02T11:13:02.006Z,789.00
2023-02-02T11:14:00.823Z,886.00
2023-02-02T11:15:00.802Z,765.00
2023-02-02T11:16:05.541Z,765.00
2023-02-02T11:17:00.726Z,932.00
2023-02-02T11:18:00.724Z,927.00
2023-02-02T11:19:00.819Z,860.00
2023-02-02T11:20:00.757Z,875.00
2023-02-02T11:21:00.858Z,754.00
2023-02-02T11:22:00.813Z,991.00
2023-02-02T11:23:00.737Z,736.00
2023-02-02T11:24:00.848Z,894.00
2023-02-02T11:25:00.715Z,841.00
2023-02-02T11:26:00.667Z,1008.00
2023-02-02T11:27:00.611Z,851.00
2023-02-02T11:28:00.693Z,883.00
2023-02-02T11:29:01.141Z,983.00
2023-02-02T11:30:00.603Z,1088.00
2023-02-02T11:31:00.835Z,934.00
2023-02-02T11:32:00.673Z,948.00
2023-02-02T11:33:00.568Z,988.00
2023-02-02T11:34:00.580Z,900.00
2023-02-02T11:35:00.538Z,747.00
2023-02-02T11:36:00.562Z,712.00
2023-02-02T11:37:00.552Z,593.00
2023-02-02T11:38:00.512Z,658.00
2023-02-02T11:39:00.565Z,931.00
2023-02-02T11:40:00.498Z,574.00
2023-02-02T11:41:00.537Z,571.00
2023-02-02T11:42:00.527Z,610.00
2023-02-02T11:43:00.474Z,803.00
2023-02-02T11:44:00.460Z,922.00
2023-02-02T11:45:00.521Z,451.00
2023-02-02T11:46:02.843Z,1156.00
2023-02-02T11:47:00.511Z,1206.00
2023-02-02T11:48:00.421Z,1239.00
2023-02-02T11:49:00.447Z,760.00
2023-02-02T11:50:00.400Z,811.00
2023-02-02T11:51:00.464Z,1005.00
2023-02-02T11:52:00.362Z,800.00
2023-02-02T11:53:00.341Z,595.00
2023-02-02T11:54:00.346Z,809.00
2023-02-02T11:55:00.372Z,707.00
2023-02-02T11:56:00.300Z,958.00
2023-02-02T11:57:00.318Z,528.00
2023-02-02T11:58:00.305Z,924.00
2023-02-02T11:59:00.287Z,911.00
2023-02-02T12:00:00.264Z,876.00
2023-02-02T12:01:00.274Z,1005.00
2023-02-02T12:02:00.365Z,1047.00
2023-02-02T12:03:00.267Z,967.00
2023-02-02T12:04:00.291Z,1112.00
2023-02-02T12:05:00.219Z,1139.00
2023-02-02T12:06:00.201Z,1049.00
2023-02-02T12:07:00.246Z,797.00
2023-02-02T12:08:00.193Z,942.00
2023-02-02T12:09:00.171Z,965.00
2023-02-02T12:10:00.251Z,1188.00
2023-02-02T12:11:00.175Z,742.00
2023-02-02T12:12:00.154Z,824.00
2023-02-02T12:13:00.120Z,790.00
2023-02-02T12:14:00.130Z,695.00
2023-02-02T12:15:00.140Z,549.00
2023-02-02T12:16:00.133Z,964.00
2023-02-02T12:17:00.093Z,877.00
2023-02-02T12:18:00.140Z,635.00
2023-02-02T12:19:00.169Z,532.00
2023-02-02T12:20:00.907Z,723.00
2023-02-02T12:21:00.041Z,514.00
2023-02-02T12:22:00.059Z,870.00
2023-02-02T12:23:00.030Z,592.00
2023-02-02T12:24:00.014Z,613.00
2023-02-02T12:25:00.101Z,826.00
2023-02-02T12:26:00.059Z,715.00
2023-02-02T12:27:00.079Z,590.00
2023-02-02T12:28:00.010Z,702.00
2023-02-02T12:29:00.036Z,649.00
2023-02-02T12:29:59.981Z,736.00
2023-02-02T12:31:00.094Z,722.00
2023-02-02T12:32:00.015Z,551.00
2023-02-02T12:32:59.975Z,540.00
2023-02-02T12:33:59.955Z,643.00
2023-02-02T12:34:59.906Z,634.00
2023-02-02T12:35:59.940Z,670.00
2023-02-02T12:36:59.896Z,685.00
2023-02-02T12:37:59.901Z,712.00
2023-02-02T12:38:59.864Z,523.00
2023-02-02T12:39:59.860Z,598.00
2023-02-02T12:41:00.051Z,515.00
2023-02-02T12:41:59.840Z,698.00
2023-02-02T12:42:59.819Z,676.00
2023-02-02T12:43:59.784Z,833.00
2023-02-02T12:44:59.800Z,766.00
2023-02-02T12:45:59.822Z,761.00
2023-02-02T12:46:59.789Z,705.00
2023-02-02T12:47:59.769Z,669.00
2023-02-02T12:48:59.762Z,588.00
2023-02-02T12:49:59.763Z,717.00
2023-02-02T12:50:59.746Z,651.00
2023-02-02T12:51:59.718Z,550.00
2023-02-02T12:52:59.711Z,716.00
2023-02-02T12:54:32.965Z,723.00
2023-02-02T12:54:59.688Z,995.00
2023-02-02T12:55:59.722Z,614.00